RJSF/FKS METAR and TAF weather

Enter ICAO airport designator
Station Type Date Time Source
RJSF METAR 2018/12/19 04:00 UTC NOAA

RJSF 190400Z 22012KT 190V250 9999 FEW030 SCT070 10/M04 Q1010


Station Type Date Time Source
RJSF Decoded METAR 2018/12/19 04:00 UTC NOAA

Fukushima Airport, Japan (RJSF) 37-14N 140-26E 375M
Dec 18, 2018 - 11:00 PM EST / 2018.12.19 0400 UTC
Wind: from the SW (220 degrees) at 14 MPH (12 KT) (direction variable):0
Visibility: greater than 7 mile(s):0
Sky conditions: partly cloudy
Temperature: 50 F (10 C)
Dew Point: 24 F (-4 C)
Relative Humidity: 37%
Pressure (altimeter): 29.83 in. Hg (1010 hPa)
ob: RJSF 190400Z 22012KT 190V250 9999 FEW030 SCT070 10/M04 Q1010
cycle: 4

Station Type Date Time Source
RJSF TAF 2018/12/18 18:29 UTC NOAA

TAF RJSF 181712Z 1818/2000 35005KT 9999 FEW030 BKN050
TEMPO 1818/1821 3000 BR
BECMG 1822/1900 20007KT
BECMG 1909/1912 31005KT


Example: see airport list